Time;durP1;ratioP1;P1;durP2;ratioP2;P2;SDS_P1;SDS_P2;PMS_P1;PMS_P2;Temp;Humidity;BMP_temperature;BMP_pressure;BME280_temperature;BME280_humidity;BME280_pressure;Samples;Min_cycle;Max_cycle;Signal;HPM_P1;HPM_P2
2022/04/15 00:01:23;;;;;;;7.37;4.93;;;12.80;99.90;;;;;;4998713;28;20216;-84
2022/04/15 00:03:50;;;;;;;5.60;5.07;;;12.70;99.90;;;;;;4998687;28;20188;-84
2022/04/15 00:06:17;;;;;;;7.27;5.23;;;12.70;99.90;;;;;;4998913;28;20643;-84
2022/04/15 00:08:43;;;;;;;6.83;5.50;;;12.60;99.90;;;;;;5015038;28;20187;-84
2022/04/15 00:11:10;;;;;;;5.23;4.73;;;12.60;99.90;;;;;;4998717;28;20264;-85
2022/04/15 00:13:36;;;;;;;7.57;5.20;;;12.50;99.90;;;;;;5018655;28;20187;-85
2022/04/15 00:16:06;;;;;;;7.00;5.37;;;12.50;99.90;;;;;;5019193;28;20215;-84
2022/04/15 00:18:33;;;;;;;6.20;4.53;;;12.50;99.90;;;;;;5002393;28;20180;-85
2022/04/15 00:20:59;;;;;;;6.47;4.40;;;12.40;99.90;;;;;;4998798;28;20200;-85
2022/04/15 00:23:26;;;;;;;5.63;4.70;;;12.30;99.90;;;;;;4998804;28;20185;-85
2022/04/15 00:25:52;;;;;;;8.77;5.27;;;12.20;99.90;;;;;;4998771;28;20179;-85
2022/04/15 00:28:19;;;;;;;5.63;5.13;;;12.10;99.90;;;;;;5015429;28;20202;-84
2022/04/15 00:30:45;;;;;;;5.73;4.90;;;12.10;99.90;;;;;;4998736;28;20199;-85
2022/04/15 00:33:11;;;;;;;6.13;5.17;;;12.20;99.90;;;;;;4998873;28;20176;-85
2022/04/15 00:35:37;;;;;;;7.00;5.27;;;12.20;99.90;;;;;;5001511;28;20184;-84
2022/04/15 00:38:03;;;;;;;8.13;5.07;;;12.20;99.90;;;;;;5017994;28;20200;-84
2022/04/15 00:40:29;;;;;;;6.80;5.63;;;12.20;99.90;;;;;;5017834;28;20216;-84
2022/04/15 00:42:55;;;;;;;6.17;5.00;;;12.20;99.90;;;;;;5018051;28;20224;-85
2022/04/15 00:45:48;;;;;;;5.73;4.93;;;12.20;99.90;;;;;;5018192;28;20182;-85
2022/04/15 00:48:14;;;;;;;6.30;4.93;;;12.20;99.90;;;;;;5017821;28;20163;-85
2022/04/15 00:50:40;;;;;;;8.07;5.07;;;12.10;99.90;;;;;;5001705;28;20268;-85
2022/04/15 00:53:10;;;;;;;6.10;4.90;;;12.10;99.90;;;;;;5001411;28;20183;-85
2022/04/15 00:55:38;;;;;;;9.90;5.47;;;12.10;99.90;;;;;;5018016;28;20575;-85
2022/04/15 00:58:05;;;;;;;7.17;5.17;;;12.10;99.90;;;;;;5018071;28;20182;-85
2022/04/15 01:00:34;;;;;;;7.90;5.27;;;12.10;99.90;;;;;;5017681;28;20218;-85
2022/04/15 01:03:02;;;;;;;6.97;4.90;;;12.10;99.90;;;;;;5018044;28;20276;-85
2022/04/15 01:05:29;;;;;;;6.10;5.13;;;11.90;99.90;;;;;;5017854;28;20184;-85
2022/04/15 01:07:56;;;;;;;9.83;6.00;;;11.80;99.90;;;;;;5017662;28;20190;-85
2022/04/15 01:10:24;;;;;;;8.40;5.37;;;11.60;99.90;;;;;;5017156;28;20208;-84
2022/04/15 01:12:56;;;;;;;7.93;5.80;;;11.60;99.90;;;;;;5017581;28;20183;-84
2022/04/15 01:15:27;;;;;;;10.33;6.30;;;11.50;99.90;;;;;;5018151;28;20193;-85
2022/04/15 01:17:54;;;;;;;6.77;6.07;;;11.40;99.90;;;;;;5018057;28;20183;-84
2022/04/15 01:20:21;;;;;;;7.87;6.70;;;11.30;99.90;;;;;;5017468;28;20256;-85
2022/04/15 01:22:55;;;;;;;9.50;6.83;;;11.30;99.90;;;;;;5016914;28;20251;-85
2022/04/15 01:25:21;;;;;;;8.20;6.30;;;11.20;99.90;;;;;;5016957;28;20178;-85
2022/04/15 01:27:48;;;;;;;9.37;6.97;;;11.20;99.90;;;;;;5017247;28;20233;-85
2022/04/15 01:30:21;;;;;;;9.43;7.40;;;11.10;99.90;;;;;;5016467;28;20198;-84
2022/04/15 01:32:48;;;;;;;11.77;8.00;;;11.10;99.90;;;;;;5015999;28;20187;-85
2022/04/15 01:35:18;;;;;;;8.70;7.70;;;11.10;99.90;;;;;;5016372;28;20186;-85
2022/04/15 01:37:46;;;;;;;12.23;7.50;;;11.10;99.90;;;;;;5017283;28;20182;-84
2022/04/15 01:40:13;;;;;;;8.87;7.37;;;11.20;99.90;;;;;;5000919;28;20307;-85
2022/04/15 01:42:40;;;;;;;9.77;6.93;;;11.20;99.90;;;;;;5017554;28;20240;-85
2022/04/15 01:45:07;;;;;;;8.00;6.57;;;11.20;99.90;;;;;;5001262;28;20236;-84
2022/04/15 01:47:33;;;;;;;7.50;6.70;;;11.30;99.90;;;;;;5002075;28;20221;-85
2022/04/15 01:49:59;;;;;;;7.23;6.10;;;11.30;99.90;;;;;;5001402;28;20682;-84
2022/04/15 01:52:26;;;;;;;7.53;5.77;;;11.30;99.90;;;;;;5001055;28;20277;-84
2022/04/15 01:54:52;;;;;;;9.80;6.63;;;11.40;99.90;;;;;;5000622;28;20171;-84
2022/04/15 01:57:18;;;;;;;7.13;6.43;;;11.40;99.90;;;;;;5016724;28;20198;-84
2022/04/15 01:59:44;;;;;;;10.37;7.40;;;11.40;99.90;;;;;;5016779;28;20235;-84
2022/04/15 02:02:10;;;;;;;9.80;7.17;;;11.30;99.90;;;;;;5016866;28;20210;-84
2022/04/15 02:04:36;;;;;;;8.50;6.83;;;11.30;99.90;;;;;;5034741;28;20206;-84
2022/04/15 02:07:03;;;;;;;8.30;6.50;;;11.30;99.90;;;;;;5017471;28;20175;-84
2022/04/15 02:09:29;;;;;;;8.17;6.63;;;11.30;99.90;;;;;;5016346;28;20202;-84
2022/04/15 02:11:55;;;;;;;7.40;6.10;;;11.30;99.90;;;;;;5016470;28;20182;-84
2022/04/15 02:14:21;;;;;;;8.23;6.70;;;11.30;99.90;;;;;;5000785;28;20190;-84
2022/04/15 02:16:50;;;;;;;8.53;6.47;;;11.30;99.90;;;;;;5000269;28;20179;-84
2022/04/15 02:19:16;;;;;;;8.77;6.60;;;11.30;99.90;;;;;;5000017;28;20203;-84
2022/04/15 02:21:42;;;;;;;9.23;6.67;;;11.40;99.90;;;;;;5000185;28;20293;-85
2022/04/15 02:24:39;;;;;;;7.90;6.50;;;11.40;99.90;;;;;;5034259;28;20185;-84
2022/04/15 02:27:05;;;;;;;8.57;6.70;;;11.40;99.90;;;;;;5000784;28;20266;-84
2022/04/15 02:29:32;;;;;;;7.90;6.57;;;11.40;99.90;;;;;;5000768;28;20347;-84
2022/04/15 02:31:58;;;;;;;7.83;6.70;;;11.50;99.90;;;;;;5017428;28;20182;-84
2022/04/15 02:34:24;;;;;;;8.60;6.70;;;11.50;99.90;;;;;;5000433;28;20185;-84
2022/04/15 02:36:49;;;;;;;9.27;6.77;;;11.60;99.90;;;;;;5000069;28;20233;-84
2022/04/15 02:39:15;;;;;;;10.70;6.97;;;11.60;99.90;;;;;;4998374;28;20313;-84
2022/04/15 02:41:42;;;;;;;10.83;6.70;;;11.60;99.90;;;;;;4982282;28;20217;-84
2022/04/15 02:44:08;;;;;;;13.33;6.63;;;11.70;99.90;;;;;;4997050;28;20188;-85
2022/04/15 02:46:35;;;;;;;9.97;7.47;;;11.70;99.90;;;;;;4997024;28;20231;-89
2022/04/15 02:49:02;;;;;;;10.73;7.70;;;11.80;99.90;;;;;;4980144;28;20195;-89
2022/04/15 02:51:29;;;;;;;9.50;7.27;;;11.70;99.90;;;;;;4996732;28;20183;-89
2022/04/15 02:53:54;;;;;;;12.60;8.43;;;11.70;99.90;;;;;;4980480;28;20182;-89
2022/04/15 02:56:20;;;;;;;8.80;7.30;;;11.70;99.90;;;;;;4980772;28;20187;-89
2022/04/15 02:58:46;;;;;;;9.03;7.00;;;11.70;99.90;;;;;;4980198;28;20179;-87
2022/04/15 03:01:12;;;;;;;8.93;6.57;;;11.60;99.90;;;;;;4980299;28;20215;-89
2022/04/15 03:03:38;;;;;;;9.43;6.57;;;11.60;99.90;;;;;;4980451;28;20186;-88
2022/04/15 03:06:13;;;;;;;8.37;6.70;;;11.50;99.90;;;;;;4980087;28;20175;-88
2022/04/15 03:08:39;;;;;;;9.93;7.63;;;11.40;99.90;;;;;;4980195;28;20190;-89
2022/04/15 03:11:06;;;;;;;9.07;6.77;;;11.40;99.90;;;;;;5113274;23;20257;-85
2022/04/15 03:13:32;;;;;;;7.77;6.57;;;11.30;99.90;;;;;;5015433;28;20197;-85
2022/04/15 03:15:58;;;;;;;7.47;6.40;;;11.30;99.90;;;;;;5031698;28;20179;-85
2022/04/15 03:18:23;;;;;;;8.60;6.87;;;11.30;99.90;;;;;;5015267;28;20205;-85
2022/04/15 03:20:50;;;;;;;7.50;6.70;;;11.30;99.90;;;;;;5031425;28;20208;-85
2022/04/15 03:26:34;;;;;;;7.23;6.23;;;11.20;99.90;;;;;;5031656;28;20189;-86
2022/04/15 03:29:00;;;;;;;7.53;6.57;;;11.20;99.90;;;;;;5014915;28;20175;-85
2022/04/15 03:31:26;;;;;;;9.33;6.70;;;11.30;99.90;;;;;;5031648;28;20183;-85
2022/04/15 03:33:52;;;;;;;8.13;6.63;;;11.30;99.90;;;;;;5015094;28;20205;-85
2022/04/15 03:36:18;;;;;;;11.20;7.00;;;11.30;99.90;;;;;;5032006;28;20178;-85
2022/04/15 03:38:44;;;;;;;8.37;6.57;;;11.30;99.90;;;;;;5015090;28;20582;-85
2022/04/15 03:41:10;;;;;;;7.53;6.73;;;11.30;99.90;;;;;;5014964;28;20217;-85
2022/04/15 03:43:36;;;;;;;7.83;6.80;;;11.30;99.90;;;;;;5014871;28;20199;-86
2022/04/15 03:46:03;;;;;;;9.23;6.60;;;11.30;99.90;;;;;;5015172;28;20186;-85
2022/04/15 03:48:29;;;;;;;8.70;7.30;;;11.30;99.90;;;;;;5034928;28;20185;-85
2022/04/15 03:50:55;;;;;;;7.57;6.07;;;11.30;99.90;;;;;;5035210;28;20274;-85
2022/04/15 03:53:21;;;;;;;8.93;6.07;;;11.20;99.90;;;;;;5018853;28;20234;-85
2022/04/15 03:55:48;;;;;;;7.43;6.13;;;11.10;99.90;;;;;;5035590;28;20202;-85
2022/04/15 03:58:16;;;;;;;10.83;6.60;;;11.00;99.90;;;;;;5018868;28;20189;-85
2022/04/15 04:00:46;;;;;;;6.97;6.27;;;10.90;99.90;;;;;;5018058;28;20297;-85
2022/04/15 04:03:17;;;;;;;8.67;6.87;;;10.90;99.90;;;;;;5018866;28;20194;-84
2022/04/15 04:05:42;;;;;;;7.43;6.63;;;10.90;99.90;;;;;;5018932;28;20578;-85
2022/04/15 04:08:08;;;;;;;9.43;6.90;;;10.80;99.90;;;;;;5018829;28;20182;-85
2022/04/15 04:10:34;;;;;;;9.93;7.03;;;10.80;99.90;;;;;;5018189;28;20216;-85
2022/04/15 04:13:02;;;;;;;9.77;7.73;;;10.70;99.90;;;;;;5034856;28;20199;-85
2022/04/15 04:15:29;;;;;;;8.00;6.93;;;10.60;99.90;;;;;;5018863;28;20195;-85
2022/04/15 04:17:56;;;;;;;8.57;6.67;;;10.60;99.90;;;;;;5018711;28;20265;-85
2022/04/15 04:20:22;;;;;;;10.63;6.70;;;10.50;99.90;;;;;;5018051;28;20301;-85
2022/04/15 04:22:48;;;;;;;9.87;7.47;;;10.50;99.90;;;;;;5018114;28;20178;-85
2022/04/15 04:25:14;;;;;;;10.70;8.33;;;10.50;99.90;;;;;;5017989;28;20177;-85
2022/04/15 04:27:42;;;;;;;10.10;7.63;;;10.40;99.90;;;;;;5018133;28;20171;-85
2022/04/15 04:31:01;;;;;;;9.20;8.00;;;10.40;99.90;;;;;;5017651;28;20227;-85
2022/04/15 04:33:27;;;;;;;9.63;7.50;;;10.40;99.90;;;;;;5017976;28;20198;-86
2022/04/15 04:35:53;;;;;;;9.83;8.20;;;10.30;99.90;;;;;;5034314;28;20189;-85
2022/04/15 04:38:31;;;;;;;10.00;8.33;;;10.40;99.90;;;;;;5034263;28;20553;-85
2022/04/15 04:40:57;;;;;;;9.90;7.63;;;10.40;99.90;;;;;;5034571;28;20206;-85
2022/04/15 04:43:23;;;;;;;8.47;7.33;;;10.40;99.90;;;;;;5034485;28;20214;-85
2022/04/15 04:45:49;;;;;;;11.20;7.30;;;10.40;99.90;;;;;;5034599;28;20183;-85
2022/04/15 04:48:15;;;;;;;10.07;6.77;;;10.40;99.90;;;;;;5034533;28;20191;-85
2022/04/15 04:50:42;;;;;;;9.03;6.87;;;10.40;99.90;;;;;;5034075;28;20179;-85
2022/04/15 04:53:08;;;;;;;7.93;6.60;;;10.40;99.90;;;;;;5034131;28;20202;-85
2022/04/15 04:55:33;;;;;;;9.40;7.10;;;10.40;99.90;;;;;;5034134;28;20174;-88
2022/04/15 04:57:59;;;;;;;8.97;7.30;;;10.50;99.90;;;;;;5034200;28;20212;-86
2022/04/15 05:00:25;;;;;;;8.40;6.97;;;10.50;99.90;;;;;;5033645;28;20210;-86
2022/04/15 05:02:51;;;;;;;10.70;7.80;;;10.40;99.90;;;;;;5034175;28;20171;-86
2022/04/15 05:05:18;;;;;;;8.53;7.63;;;10.40;99.90;;;;;;5033810;28;20179;-86
2022/04/15 05:07:49;;;;;;;8.60;7.60;;;10.40;99.90;;;;;;5034143;28;20172;-86
2022/04/15 05:10:15;;;;;;;8.27;7.40;;;10.30;99.90;;;;;;5033760;28;20186;-86
2022/04/15 05:12:41;;;;;;;8.80;7.10;;;10.40;99.90;;;;;;5033900;28;20193;-86
2022/04/15 05:15:08;;;;;;;10.13;7.60;;;10.40;99.90;;;;;;5033739;28;20185;-86
2022/04/15 05:17:34;;;;;;;10.07;7.57;;;10.40;99.90;;;;;;5034070;28;20194;-86
2022/04/15 05:20:03;;;;;;;10.53;7.87;;;10.50;99.90;;;;;;5033050;28;20182;-85
2022/04/15 05:22:29;;;;;;;8.23;7.30;;;10.40;99.90;;;;;;5033715;28;20183;-86
2022/04/15 05:24:55;;;;;;;8.63;7.43;;;10.30;99.90;;;;;;5033116;28;20202;-85
2022/04/15 05:27:37;;;;;;;12.17;7.20;;;10.20;99.90;;;;;;5033338;28;20214;-86
2022/04/15 05:30:04;;;;;;;7.37;6.33;;;10.10;99.90;;;;;;5033610;28;20175;-86
2022/04/15 05:32:33;;;;;;;7.63;6.63;;;10.10;99.90;;;;;;5033383;28;20206;-86
2022/04/15 05:34:59;;;;;;;7.77;6.97;;;10.10;99.90;;;;;;5033408;28;20213;-86
2022/04/15 05:37:25;;;;;;;7.63;6.43;;;10.10;99.90;;;;;;5033367;28;20178;-86
2022/04/15 05:39:51;;;;;;;7.17;6.40;;;10.20;99.90;;;;;;5033418;28;20186;-86
2022/04/15 05:42:17;;;;;;;8.33;7.10;;;10.20;99.90;;;;;;5033130;28;20198;-86
2022/04/15 05:44:43;;;;;;;10.40;7.27;;;10.20;99.90;;;;;;5033233;28;20202;-86
2022/04/15 05:47:09;;;;;;;8.33;7.07;;;10.30;99.90;;;;;;5033163;28;20186;-86
2022/04/15 05:49:35;;;;;;;8.47;7.00;;;10.40;99.90;;;;;;5033268;28;20178;-86
2022/04/15 05:52:02;;;;;;;8.97;7.47;;;10.40;99.90;;;;;;5033439;28;20217;-86
2022/04/15 05:54:28;;;;;;;9.80;7.47;;;10.50;99.90;;;;;;5033199;28;20293;-86
2022/04/15 05:56:55;;;;;;;13.03;8.20;;;10.70;99.90;;;;;;5032927;28;20214;-86
2022/04/15 05:59:21;;;;;;;18.27;11.47;;;10.70;99.90;;;;;;5032767;28;20186;-86
2022/04/15 06:01:51;;;;;;;10.90;8.60;;;10.80;99.90;;;;;;5032873;28;20285;-86
2022/04/15 06:04:17;;;;;;;11.80;8.37;;;10.80;99.90;;;;;;5033069;28;20202;-85
2022/04/15 06:06:44;;;;;;;11.27;8.43;;;10.90;99.90;;;;;;5033168;28;20183;-86
2022/04/15 06:09:09;;;;;;;12.00;8.03;;;10.90;99.90;;;;;;5032043;28;20182;-86
2022/04/15 06:11:37;;;;;;;8.83;7.20;;;11.10;99.90;;;;;;5032344;28;20244;-86
2022/04/15 06:14:06;;;;;;;9.20;7.93;;;11.20;99.90;;;;;;5032493;28;20209;-86
2022/04/15 06:16:32;;;;;;;9.33;7.53;;;11.20;99.90;;;;;;5032751;28;20175;-85
2022/04/15 06:18:59;;;;;;;9.60;7.97;;;11.30;99.90;;;;;;5032384;28;20178;-86
2022/04/15 06:21:25;;;;;;;10.50;7.30;;;11.40;99.90;;;;;;5032571;28;20248;-86
2022/04/15 06:23:51;;;;;;;10.27;7.83;;;11.50;99.90;;;;;;4999757;28;20320;-86
2022/04/15 06:26:20;;;;;;;11.60;7.03;;;11.70;99.90;;;;;;5030552;28;20193;-86
2022/04/15 06:28:46;;;;;;;8.23;7.17;;;11.80;99.90;;;;;;5020207;28;20187;-87
2022/04/15 06:31:12;;;;;;;8.60;7.00;;;11.90;99.90;;;;;;5032230;28;20183;-87
2022/04/15 06:33:38;;;;;;;9.73;7.40;;;12.00;99.90;;;;;;5032056;28;20218;-86
2022/04/15 06:36:04;;;;;;;9.90;7.70;;;12.10;99.90;;;;;;5032274;28;20273;-87
2022/04/15 06:38:30;;;;;;;10.17;7.40;;;12.20;99.90;;;;;;5032420;28;20598;-86
2022/04/15 06:41:02;;;;;;;9.17;7.43;;;12.40;99.90;;;;;;5031459;28;20204;-86
2022/04/15 06:43:28;;;;;;;8.53;7.50;;;12.50;99.90;;;;;;5032148;28;20202;-86
2022/04/15 06:45:54;;;;;;;8.20;7.40;;;12.60;99.90;;;;;;5031970;28;20180;-86
2022/04/15 06:48:23;;;;;;;10.13;7.57;;;12.70;99.90;;;;;;5031807;28;20180;-86
2022/04/15 06:50:55;;;;;;;9.10;7.67;;;12.70;99.90;;;;;;5031974;28;20179;-86
2022/04/15 06:53:25;;;;;;;9.20;7.57;;;12.80;99.90;;;;;;5048503;28;20202;-87
2022/04/15 06:55:52;;;;;;;9.67;7.40;;;13.00;99.90;;;;;;5048632;28;20177;-86
2022/04/15 06:58:19;;;;;;;8.50;7.47;;;12.90;99.90;;;;;;5015268;28;20251;-86
2022/04/15 07:00:46;;;;;;;10.67;7.77;;;13.00;99.90;;;;;;5031671;28;20213;-86
2022/04/15 07:03:18;;;;;;;9.80;7.60;;;13.10;99.90;;;;;;5046150;28;20208;-86
2022/04/15 07:05:44;;;;;;;10.57;7.57;;;13.20;99.90;;;;;;5021886;28;20272;-86
2022/04/15 07:08:11;;;;;;;8.10;6.83;;;13.30;99.90;;;;;;5032478;28;20239;-86
2022/04/15 07:10:37;;;;;;;8.40;6.97;;;13.40;99.90;;;;;;5031278;28;20194;-86
2022/04/15 07:13:04;;;;;;;8.10;7.30;;;13.50;99.90;;;;;;5014745;28;20233;-86
2022/04/15 07:15:30;;;;;;;9.93;7.57;;;13.60;99.90;;;;;;4998067;28;20599;-87
2022/04/15 07:17:56;;;;;;;10.17;7.57;;;13.70;99.90;;;;;;4999892;28;20654;-86
2022/04/15 07:20:23;;;;;;;9.10;7.77;;;13.90;99.90;;;;;;5015148;28;20202;-86
2022/04/15 07:23:08;;;;;;;8.30;7.30;;;14.10;99.90;;;;;;5001777;28;20182;-86
2022/04/15 07:25:34;;;;;;;8.47;6.93;;;14.30;99.90;;;;;;4990339;28;20201;-86
2022/04/15 07:28:01;;;;;;;7.67;6.97;;;14.40;99.90;;;;;;4982826;28;20191;-86
2022/04/15 07:30:27;;;;;;;11.93;7.73;;;14.60;99.90;;;;;;4983348;28;20183;-87
2022/04/15 07:33:02;;;;;;;11.07;7.67;;;14.70;99.90;;;;;;4982918;28;20187;-86
2022/04/15 07:35:28;;;;;;;10.50;7.23;;;14.80;99.90;;;;;;4983417;28;20620;-86
2022/04/15 07:37:53;;;;;;;9.80;7.00;;;14.90;99.90;;;;;;4982887;28;20282;-87
2022/04/15 07:40:27;;;;;;;8.27;7.10;;;15.00;99.90;;;;;;4989339;28;20209;-87
2022/04/15 07:42:57;;;;;;;11.37;7.07;;;15.20;99.90;;;;;;5019131;28;20220;-86
2022/04/15 07:45:23;;;;;;;8.30;7.20;;;15.30;99.90;;;;;;5035395;28;20213;-86
2022/04/15 07:47:49;;;;;;;8.83;7.30;;;15.40;99.90;;;;;;5035771;28;20198;-86
2022/04/15 07:50:15;;;;;;;7.73;7.00;;;15.50;99.90;;;;;;5018651;28;20182;-87
2022/04/15 07:52:41;;;;;;;9.10;8.13;;;15.60;99.90;;;;;;5035101;28;20178;-87
2022/04/15 07:55:08;;;;;;;8.33;7.30;;;15.70;99.90;;;;;;5035424;28;20209;-86
2022/04/15 07:57:34;;;;;;;9.57;8.40;;;15.80;99.90;;;;;;5034953;28;20281;-86
2022/04/15 08:00:00;;;;;;;9.70;8.40;;;15.90;99.90;;;;;;5030796;28;20175;-86
2022/04/15 08:02:25;;;;;;;9.03;7.57;;;15.90;99.90;;;;;;5034330;28;20209;-86
2022/04/15 08:04:52;;;;;;;8.93;8.03;;;16.00;99.90;;;;;;5018618;28;20194;-86
2022/04/15 08:07:18;;;;;;;9.63;8.27;;;15.90;99.90;;;;;;5033788;28;20170;-86
2022/04/15 08:09:44;;;;;;;9.73;7.57;;;15.90;99.90;;;;;;5024917;28;20194;-86
2022/04/15 08:12:11;;;;;;;12.33;8.70;;;16.00;99.90;;;;;;5025585;28;20174;-87
2022/04/15 08:14:37;;;;;;;11.03;8.83;;;16.10;99.90;;;;;;4982743;28;20277;-87
2022/04/15 08:17:04;;;;;;;9.83;8.27;;;16.10;99.90;;;;;;4993540;28;20273;-84
2022/04/15 08:19:31;;;;;;;10.17;8.53;;;16.20;99.90;;;;;;5032730;28;20329;-84
2022/04/15 08:21:58;;;;;;;9.20;8.20;;;16.30;99.90;;;;;;5000673;28;20203;-85
2022/04/15 08:24:24;;;;;;;11.87;8.77;;;16.50;99.90;;;;;;5034293;28;20203;-84
2022/04/15 08:26:54;;;;;;;11.83;9.37;;;16.60;99.90;;;;;;5020563;28;20175;-85
2022/04/15 08:29:22;;;;;;;12.20;9.20;;;16.70;99.90;;;;;;5018977;28;20189;-85
2022/04/15 08:31:50;;;;;;;10.30;8.40;;;16.80;99.90;;;;;;5019863;28;20191;-86
2022/04/15 08:34:19;;;;;;;10.83;8.50;;;16.80;99.90;;;;;;5014356;28;20227;-85
2022/04/15 08:36:47;;;;;;;9.07;8.13;;;16.90;99.90;;;;;;5023683;28;20190;-83
2022/04/15 08:39:14;;;;;;;10.07;8.57;;;17.10;99.90;;;;;;5040714;28;20190;-88
2022/04/15 08:41:43;;;;;;;12.18;9.52;;;17.20;99.90;;;;;;5034407;28;20210;-87
2022/04/15 08:44:09;;;;;;;10.18;9.18;;;17.20;99.90;;;;;;5034067;28;20191;-87
2022/04/15 08:46:36;;;;;;;10.50;9.10;;;17.30;99.90;;;;;;5033966;28;20174;-88
2022/04/15 08:49:02;;;;;;;12.23;10.50;;;17.30;99.90;;;;;;5033017;28;20197;-87
2022/04/15 08:51:30;;;;;;;12.93;9.95;;;17.30;99.90;;;;;;5033162;28;20804;-87
2022/04/15 08:53:56;;;;;;;11.93;10.05;;;17.40;99.90;;;;;;5034070;28;20208;-87
2022/04/15 08:56:23;;;;;;;12.20;10.73;;;17.50;99.90;;;;;;5033930;28;20628;-87
2022/04/15 08:58:49;;;;;;;12.45;10.75;;;17.60;99.90;;;;;;5033526;28;20183;-86
2022/04/15 09:01:16;;;;;;;12.32;10.98;;;17.70;99.90;;;;;;5000966;28;20206;-87
2022/04/15 09:03:43;;;;;;;11.82;10.10;;;17.80;99.90;;;;;;5017166;28;20206;-87
2022/04/15 09:06:18;;;;;;;12.23;10.90;;;17.90;99.90;;;;;;5033797;28;20179;-87
2022/04/15 09:08:59;;;;;;;15.82;12.00;;;18.00;99.90;;;;;;5017146;28;20178;-87
2022/04/15 09:11:36;;;;;;;14.20;12.70;;;18.10;99.90;;;;;;5034034;28;20202;-87
2022/04/15 09:14:07;;;;;;;12.07;10.88;;;18.00;99.90;;;;;;5000827;28;20204;-87
2022/04/15 09:16:46;;;;;;;15.95;12.80;;;18.10;99.90;;;;;;5033747;28;20174;-87
2022/04/15 09:19:13;;;;;;;14.23;12.75;;;18.10;99.90;;;;;;5033681;28;20178;-87
2022/04/15 09:21:41;;;;;;;16.75;13.50;;;18.10;99.90;;;;;;5033424;28;20293;-87
2022/04/15 09:24:08;;;;;;;12.45;10.60;;;18.20;99.90;;;;;;5033324;28;20199;-87
2022/04/15 09:26:37;;;;;;;14.73;12.73;;;18.50;99.90;;;;;;5033782;28;20274;-87
2022/04/15 09:29:03;;;;;;;13.55;12.10;;;18.60;99.90;;;;;;5032954;28;20179;-87
2022/04/15 09:31:29;;;;;;;15.00;13.40;;;18.70;99.90;;;;;;5033178;28;20179;-87
2022/04/15 09:34:00;;;;;;;13.70;12.00;;;18.70;99.90;;;;;;5033226;28;20336;-87
2022/04/15 09:36:30;;;;;;;13.60;11.77;;;18.80;99.90;;;;;;5033214;28;20183;-87
2022/04/15 09:39:00;;;;;;;13.52;11.55;;;18.70;99.90;;;;;;5000433;28;20183;-87
2022/04/15 09:41:29;;;;;;;14.00;12.35;;;18.90;99.90;;;;;;5000396;28;20203;-87
2022/04/15 09:43:57;;;;;;;16.85;14.45;;;19.10;99.90;;;;;;5032723;28;20248;-87
2022/04/15 09:46:26;;;;;;;13.95;12.48;;;19.20;99.90;;;;;;5032259;28;20186;-87
2022/04/15 09:49:05;;;;;;;13.45;12.05;;;19.20;99.90;;;;;;5032913;28;20178;-87
2022/04/15 09:51:37;;;;;;;14.00;12.48;;;19.20;99.90;;;;;;4999951;28;20201;-87
2022/04/15 09:54:09;;;;;;;17.08;12.82;;;19.40;99.90;;;;;;5032843;28;20256;-87
2022/04/15 09:56:39;;;;;;;15.43;12.45;;;19.20;99.90;;;;;;5032835;28;20262;-87
2022/04/15 09:59:11;;;;;;;11.38;10.07;;;19.20;99.90;;;;;;5033252;28;20171;-87
2022/04/15 10:01:45;;;;;;;11.18;9.93;;;19.30;99.90;;;;;;5032660;28;20217;-87
2022/04/15 10:04:13;;;;;;;10.38;9.32;;;19.30;99.90;;;;;;5032506;28;20237;-87
2022/04/15 10:06:41;;;;;;;9.35;8.35;;;19.30;99.90;;;;;;5032503;28;20183;-87
2022/04/15 10:09:11;;;;;;;11.00;8.52;;;19.50;99.90;;;;;;5032673;28;20185;-87
2022/04/15 10:11:40;;;;;;;11.38;10.20;;;19.60;99.90;;;;;;5032620;28;20198;-87
2022/04/15 10:14:08;;;;;;;10.88;9.50;;;19.10;99.90;;;;;;5032509;28;20209;-87
2022/04/15 10:16:36;;;;;;;9.45;8.45;;;19.00;99.90;;;;;;5032433;28;20187;-87
2022/04/15 10:19:02;;;;;;;11.20;8.77;;;19.20;99.90;;;;;;5032053;28;20190;-87
2022/04/15 10:21:35;;;;;;;9.30;6.20;;;19.30;99.90;;;;;;5032233;28;20207;-87
2022/04/15 10:24:02;;;;;;;6.60;4.82;;;19.40;99.90;;;;;;5006766;28;20660;-87
2022/04/15 10:26:49;;;;;;;5.20;3.53;;;19.40;99.90;;;;;;4981401;28;20179;-87
2022/04/15 10:29:16;;;;;;;4.40;3.80;;;19.60;99.90;;;;;;5031601;28;20189;-87
2022/04/15 10:31:45;;;;;;;5.28;4.72;;;19.80;99.90;;;;;;4980130;28;20187;-87
2022/04/15 10:34:26;;;;;;;7.40;6.28;;;20.10;99.90;;;;;;5088620;28;20598;-33
2022/04/15 10:36:55;;;;;;;6.45;5.85;;;20.00;99.90;;;;;;5075386;28;20177;-33
2022/04/15 10:39:23;;;;;;;7.88;6.68;;;19.80;99.90;;;;;;5069943;28;20256;-33
2022/04/15 10:41:50;;;;;;;10.88;7.63;;;19.90;99.90;;;;;;5078206;28;20268;-33
2022/04/15 10:44:25;;;;;;;7.78;6.00;;;19.80;99.90;;;;;;5080594;28;20279;-33
2022/04/15 10:46:51;;;;;;;7.20;6.50;;;19.90;99.90;;;;;;5064951;23;20294;-39
2022/04/15 10:49:23;;;;;;;7.00;6.28;;;20.10;99.90;;;;;;5045575;28;20584;-38
2022/04/15 10:52:01;;;;;;;5.22;4.65;;;20.30;99.90;;;;;;5053578;28;20178;-38
2022/04/15 10:54:48;;;;;;;6.80;4.88;;;20.50;99.90;;;;;;5046355;28;20189;-38
2022/04/15 10:57:15;;;;;;;6.13;4.78;;;20.30;99.90;;;;;;5044662;28;20202;-37
2022/04/15 11:02:51;;;;;;;6.85;4.72;;;20.10;99.90;;;;;;5048434;28;20178;-38
2022/04/15 11:05:41;;;;;;;7.13;5.05;;;20.40;99.90;;;;;;5047190;28;20185;-38
2022/04/15 11:08:11;;;;;;;7.13;4.80;;;20.30;99.90;;;;;;5029757;28;20201;-37
2022/04/15 11:10:41;;;;;;;6.32;4.65;;;19.90;99.90;;;;;;5025030;28;20214;-38
2022/04/15 11:13:39;;;;;;;7.95;5.20;;;19.80;99.90;;;;;;5046528;28;20292;-38
2022/04/15 11:16:06;;;;;;;5.85;5.30;;;20.10;99.90;;;;;;5062325;28;20236;-38
2022/04/15 11:18:58;;;;;;;6.55;5.35;;;20.40;99.90;;;;;;5046685;28;20175;-38
2022/04/15 11:21:33;;;;;;;4.82;4.30;;;20.70;99.90;;;;;;5047027;28;20182;-39
2022/04/15 11:24:13;;;;;;;6.20;5.57;;;20.60;99.90;;;;;;5046026;28;20185;-38
2022/04/15 11:26:43;;;;;;;5.60;5.10;;;20.40;99.90;;;;;;5010386;28;20544;-37
2022/04/15 11:29:11;;;;;;;5.85;5.28;;;19.60;99.90;;;;;;5023288;28;20194;-38
2022/04/15 11:31:46;;;;;;;5.53;4.13;;;19.40;99.90;;;;;;5030108;28;20186;-38
2022/04/15 11:34:17;;;;;;;6.35;4.03;;;19.50;99.90;;;;;;5025801;28;20228;-39
2022/04/15 11:36:48;;;;;;;4.93;3.35;;;19.60;99.90;;;;;;5026700;28;20454;-38
2022/04/15 11:39:21;;;;;;;5.18;4.40;;;19.80;99.90;;;;;;5026667;28;20188;-40
2022/04/15 11:41:49;;;;;;;5.00;4.50;;;19.80;99.90;;;;;;5039668;28;20189;-39
2022/04/15 11:44:16;;;;;;;4.90;4.05;;;19.70;99.90;;;;;;5025095;28;20191;-42
2022/04/15 11:46:44;;;;;;;5.20;4.50;;;20.00;99.90;;;;;;5032463;28;20207;-38
2022/04/15 11:49:22;;;;;;;4.93;4.13;;;20.10;99.90;;;;;;5033058;28;20178;-40
2022/04/15 11:51:51;;;;;;;5.35;4.75;;;20.30;99.90;;;;;;5033064;28;20194;-38
2022/04/15 11:54:22;;;;;;;5.38;4.40;;;20.60;99.90;;;;;;5032974;28;20218;-38
2022/04/15 11:56:53;;;;;;;5.20;3.80;;;20.20;99.90;;;;;;5031107;28;20195;-39
2022/04/15 11:59:19;;;;;;;5.68;3.75;;;19.90;99.90;;;;;;5033996;28;20174;-41
2022/04/15 12:01:45;;;;;;;5.43;3.55;;;20.00;99.90;;;;;;5050842;28;20271;-43
2022/04/15 12:04:11;;;;;;;5.07;4.57;;;20.30;99.90;;;;;;5050784;28;20214;-41
2022/04/15 12:06:40;;;;;;;5.13;4.60;;;20.20;99.90;;;;;;5049470;28;20254;-38
2022/04/15 12:09:11;;;;;;;7.43;4.95;;;20.40;99.90;;;;;;5048824;28;20185;-39
2022/04/15 12:11:38;;;;;;;4.82;3.88;;;20.40;99.90;;;;;;5032949;28;20174;-43
2022/04/15 12:14:07;;;;;;;5.05;4.55;;;20.50;99.90;;;;;;5030882;28;20237;-44
2022/04/15 12:16:39;;;;;;;4.47;3.90;;;20.60;99.90;;;;;;5032894;28;20194;-40
2022/04/15 12:19:07;;;;;;;5.68;4.22;;;20.60;99.90;;;;;;5017177;28;20181;-43
2022/04/15 12:21:35;;;;;;;4.05;3.65;;;20.40;99.90;;;;;;5047238;28;20202;-43
2022/04/15 12:24:22;;;;;;;6.03;4.35;;;20.10;99.90;;;;;;5039236;28;20202;-44
2022/04/15 12:26:53;;;;;;;7.10;4.00;;;20.00;99.90;;;;;;5031969;28;20198;-40
2022/04/15 12:32:15;;;;;;;6.18;4.57;;;20.30;99.90;;;;;;5012477;28;20179;-39
2022/04/15 12:34:42;;;;;;;6.47;5.25;;;20.80;99.90;;;;;;4995774;28;20190;-37
2022/04/15 12:37:49;;;;;;;6.40;4.80;;;20.60;99.90;;;;;;5012072;28;20195;-38
2022/04/15 12:40:15;;;;;;;5.47;4.57;;;19.90;99.90;;;;;;5011701;28;20199;-38
2022/04/15 12:42:45;;;;;;;6.13;4.68;;;19.90;99.90;;;;;;5019428;28;20638;-36
2022/04/15 12:45:12;;;;;;;6.18;4.90;;;19.80;99.90;;;;;;5029737;28;20182;-37
2022/04/15 12:47:39;;;;;;;5.40;3.60;;;19.90;99.90;;;;;;5031856;28;20210;-39
2022/04/15 12:50:24;;;;;;;6.88;4.57;;;20.20;99.90;;;;;;5031812;28;20186;-40
2022/04/15 12:52:52;;;;;;;5.47;3.95;;;20.60;99.90;;;;;;5031867;28;20218;-40
2022/04/15 12:55:35;;;;;;;7.13;4.72;;;20.40;99.90;;;;;;5031614;28;20197;-38
2022/04/15 12:58:15;;;;;;;5.40;4.00;;;20.30;99.90;;;;;;5031531;28;20182;-40
2022/04/15 13:00:40;;;;;;;5.25;4.13;;;20.40;99.90;;;;;;5031322;28;20217;-39